sensor_id;sensor_type;location;lat;lon;timestamp;P1;durP1;ratioP1;P2;durP2;ratioP2
16727;SDS011;8482;54.396;18.590;2022-08-21T00:00:22;8.10;;;6.63;;
16727;SDS011;8482;54.396;18.590;2022-08-21T00:02:52;8.15;;;6.15;;
16727;SDS011;8482;54.396;18.590;2022-08-21T00:05:29;9.40;;;6.72;;
16727;SDS011;8482;54.396;18.590;2022-08-21T00:07:57;8.32;;;5.93;;
16727;SDS011;8482;54.396;18.590;2022-08-21T00:10:24;8.13;;;6.40;;
16727;SDS011;8482;54.396;18.590;2022-08-21T00:12:50;8.50;;;6.38;;
16727;SDS011;8482;54.396;18.590;2022-08-21T00:15:19;7.53;;;5.72;;
16727;SDS011;8482;54.396;18.590;2022-08-21T00:17:51;7.55;;;6.00;;
16727;SDS011;8482;54.396;18.590;2022-08-21T00:20:18;8.52;;;6.30;;
16727;SDS011;8482;54.396;18.590;2022-08-21T00:22:45;7.50;;;5.80;;
16727;SDS011;8482;54.396;18.590;2022-08-21T00:25:12;7.82;;;5.72;;
16727;SDS011;8482;54.396;18.590;2022-08-21T00:27:39;7.45;;;5.78;;
16727;SDS011;8482;54.396;18.590;2022-08-21T00:30:11;7.57;;;5.75;;
16727;SDS011;8482;54.396;18.590;2022-08-21T00:32:39;7.35;;;5.68;;
16727;SDS011;8482;54.396;18.590;2022-08-21T00:35:07;7.28;;;5.60;;
16727;SDS011;8482;54.396;18.590;2022-08-21T00:37:40;7.00;;;4.97;;
16727;SDS011;8482;54.396;18.590;2022-08-21T00:40:09;7.07;;;5.55;;
16727;SDS011;8482;54.396;18.590;2022-08-21T00:42:39;6.40;;;4.70;;
16727;SDS011;8482;54.396;18.590;2022-08-21T00:45:06;7.13;;;5.07;;
16727;SDS011;8482;54.396;18.590;2022-08-21T00:47:33;6.90;;;5.05;;
16727;SDS011;8482;54.396;18.590;2022-08-21T00:49:58;6.90;;;5.10;;
16727;SDS011;8482;54.396;18.590;2022-08-21T00:52:27;6.28;;;4.70;;
16727;SDS011;8482;54.396;18.590;2022-08-21T00:54:57;6.55;;;4.85;;
16727;SDS011;8482;54.396;18.590;2022-08-21T00:57:33;5.93;;;4.40;;
16727;SDS011;8482;54.396;18.590;2022-08-21T01:00:07;6.47;;;4.63;;
16727;SDS011;8482;54.396;18.590;2022-08-21T01:02:38;5.97;;;4.22;;
16727;SDS011;8482;54.396;18.590;2022-08-21T01:05:05;6.13;;;4.25;;
16727;SDS011;8482;54.396;18.590;2022-08-21T01:07:32;5.30;;;3.97;;
16727;SDS011;8482;54.396;18.590;2022-08-21T01:09:58;5.90;;;4.43;;
16727;SDS011;8482;54.396;18.590;2022-08-21T01:12:23;6.18;;;4.45;;
16727;SDS011;8482;54.396;18.590;2022-08-21T01:14:50;6.50;;;4.40;;
16727;SDS011;8482;54.396;18.590;2022-08-21T01:17:18;6.28;;;4.53;;
16727;SDS011;8482;54.396;18.590;2022-08-21T01:19:45;5.60;;;3.78;;
16727;SDS011;8482;54.396;18.590;2022-08-21T01:22:11;6.00;;;4.43;;
16727;SDS011;8482;54.396;18.590;2022-08-21T01:24:38;6.47;;;4.53;;
16727;SDS011;8482;54.396;18.590;2022-08-21T01:27:04;6.10;;;4.32;;
16727;SDS011;8482;54.396;18.590;2022-08-21T01:29:44;5.63;;;3.95;;
16727;SDS011;8482;54.396;18.590;2022-08-21T01:32:19;6.25;;;4.30;;
16727;SDS011;8482;54.396;18.590;2022-08-21T01:34:47;5.45;;;4.10;;
16727;SDS011;8482;54.396;18.590;2022-08-21T01:37:15;5.82;;;4.10;;
16727;SDS011;8482;54.396;18.590;2022-08-21T01:39:42;5.65;;;4.05;;
16727;SDS011;8482;54.396;18.590;2022-08-21T01:42:08;5.72;;;4.05;;
16727;SDS011;8482;54.396;18.590;2022-08-21T01:44:35;5.80;;;3.90;;
16727;SDS011;8482;54.396;18.590;2022-08-21T01:47:02;6.35;;;4.40;;
16727;SDS011;8482;54.396;18.590;2022-08-21T01:49:34;5.30;;;3.75;;
16727;SDS011;8482;54.396;18.590;2022-08-21T01:52:02;6.53;;;4.30;;
16727;SDS011;8482;54.396;18.590;2022-08-21T01:54:29;5.88;;;4.25;;
16727;SDS011;8482;54.396;18.590;2022-08-21T01:56:55;5.55;;;3.97;;
16727;SDS011;8482;54.396;18.590;2022-08-21T01:59:23;5.57;;;3.80;;
16727;SDS011;8482;54.396;18.590;2022-08-21T02:01:50;4.70;;;3.60;;
16727;SDS011;8482;54.396;18.590;2022-08-21T02:04:16;6.93;;;4.30;;
16727;SDS011;8482;54.396;18.590;2022-08-21T02:06:42;6.25;;;4.13;;
16727;SDS011;8482;54.396;18.590;2022-08-21T02:09:09;4.80;;;3.58;;
16727;SDS011;8482;54.396;18.590;2022-08-21T02:11:36;5.72;;;3.60;;
16727;SDS011;8482;54.396;18.590;2022-08-21T02:14:08;5.05;;;3.40;;
16727;SDS011;8482;54.396;18.590;2022-08-21T02:16:39;6.68;;;3.88;;
16727;SDS011;8482;54.396;18.590;2022-08-21T02:19:07;5.05;;;3.60;;
16727;SDS011;8482;54.396;18.590;2022-08-21T02:21:35;5.03;;;3.80;;
16727;SDS011;8482;54.396;18.590;2022-08-21T02:24:01;5.63;;;4.00;;
16727;SDS011;8482;54.396;18.590;2022-08-21T02:26:27;5.30;;;3.47;;
16727;SDS011;8482;54.396;18.590;2022-08-21T02:28:53;5.38;;;3.45;;
16727;SDS011;8482;54.396;18.590;2022-08-21T02:31:19;5.65;;;4.00;;
16727;SDS011;8482;54.396;18.590;2022-08-21T02:33:45;5.22;;;3.67;;
16727;SDS011;8482;54.396;18.590;2022-08-21T02:36:11;6.30;;;4.20;;
16727;SDS011;8482;54.396;18.590;2022-08-21T02:38:38;5.93;;;4.05;;
16727;SDS011;8482;54.396;18.590;2022-08-21T02:41:09;5.93;;;3.88;;
16727;SDS011;8482;54.396;18.590;2022-08-21T02:43:38;5.80;;;4.00;;
16727;SDS011;8482;54.396;18.590;2022-08-21T02:46:06;5.85;;;4.07;;
16727;SDS011;8482;54.396;18.590;2022-08-21T02:48:34;6.40;;;4.63;;
16727;SDS011;8482;54.396;18.590;2022-08-21T02:51:05;6.72;;;4.60;;
16727;SDS011;8482;54.396;18.590;2022-08-21T02:53:40;6.68;;;4.90;;
16727;SDS011;8482;54.396;18.590;2022-08-21T02:56:09;6.72;;;5.03;;
16727;SDS011;8482;54.396;18.590;2022-08-21T02:58:43;6.20;;;4.60;;
16727;SDS011;8482;54.396;18.590;2022-08-21T03:01:13;5.68;;;4.43;;
16727;SDS011;8482;54.396;18.590;2022-08-21T03:03:41;6.70;;;5.03;;
16727;SDS011;8482;54.396;18.590;2022-08-21T03:06:11;8.05;;;5.72;;
16727;SDS011;8482;54.396;18.590;2022-08-21T03:08:39;7.07;;;5.63;;
16727;SDS011;8482;54.396;18.590;2022-08-21T03:11:06;7.32;;;5.45;;
16727;SDS011;8482;54.396;18.590;2022-08-21T03:13:33;6.95;;;5.30;;
16727;SDS011;8482;54.396;18.590;2022-08-21T03:15:59;7.18;;;5.47;;
16727;SDS011;8482;54.396;18.590;2022-08-21T03:18:25;7.10;;;5.20;;
16727;SDS011;8482;54.396;18.590;2022-08-21T03:20:50;7.45;;;5.20;;
16727;SDS011;8482;54.396;18.590;2022-08-21T03:23:16;7.38;;;5.78;;
16727;SDS011;8482;54.396;18.590;2022-08-21T03:25:43;6.90;;;5.13;;
16727;SDS011;8482;54.396;18.590;2022-08-21T03:28:13;6.70;;;5.07;;
16727;SDS011;8482;54.396;18.590;2022-08-21T03:30:44;6.90;;;5.18;;
16727;SDS011;8482;54.396;18.590;2022-08-21T03:33:12;6.78;;;5.25;;
16727;SDS011;8482;54.396;18.590;2022-08-21T03:35:38;7.60;;;5.40;;
16727;SDS011;8482;54.396;18.590;2022-08-21T03:38:05;6.53;;;4.95;;
16727;SDS011;8482;54.396;18.590;2022-08-21T03:40:31;7.15;;;5.32;;
16727;SDS011;8482;54.396;18.590;2022-08-21T03:42:56;6.80;;;5.18;;
16727;SDS011;8482;54.396;18.590;2022-08-21T03:45:23;7.45;;;5.57;;
16727;SDS011;8482;54.396;18.590;2022-08-21T03:47:57;6.18;;;4.85;;
16727;SDS011;8482;54.396;18.590;2022-08-21T03:50:26;7.03;;;5.07;;
16727;SDS011;8482;54.396;18.590;2022-08-21T03:52:57;6.28;;;4.57;;
16727;SDS011;8482;54.396;18.590;2022-08-21T03:55:24;6.88;;;5.07;;
16727;SDS011;8482;54.396;18.590;2022-08-21T03:57:51;7.07;;;5.25;;
16727;SDS011;8482;54.396;18.590;2022-08-21T04:00:17;6.75;;;4.93;;
16727;SDS011;8482;54.396;18.590;2022-08-21T04:02:44;6.57;;;5.18;;
16727;SDS011;8482;54.396;18.590;2022-08-21T04:05:12;7.03;;;5.32;;
16727;SDS011;8482;54.396;18.590;2022-08-21T04:07:51;6.90;;;5.20;;
16727;SDS011;8482;54.396;18.590;2022-08-21T04:10:26;7.43;;;5.05;;
16727;SDS011;8482;54.396;18.590;2022-08-21T04:12:55;6.15;;;4.40;;
16727;SDS011;8482;54.396;18.590;2022-08-21T04:15:22;6.93;;;4.85;;
16727;SDS011;8482;54.396;18.590;2022-08-21T04:17:50;6.43;;;4.78;;
16727;SDS011;8482;54.396;18.590;2022-08-21T04:20:17;6.38;;;4.65;;
16727;SDS011;8482;54.396;18.590;2022-08-21T04:22:44;6.03;;;4.55;;
16727;SDS011;8482;54.396;18.590;2022-08-21T04:25:11;6.00;;;4.28;;
16727;SDS011;8482;54.396;18.590;2022-08-21T04:27:39;6.60;;;4.38;;
16727;SDS011;8482;54.396;18.590;2022-08-21T04:30:06;6.28;;;4.60;;
16727;SDS011;8482;54.396;18.590;2022-08-21T04:32:37;6.97;;;5.20;;
16727;SDS011;8482;54.396;18.590;2022-08-21T04:35:07;5.60;;;4.07;;
16727;SDS011;8482;54.396;18.590;2022-08-21T04:37:35;6.22;;;4.53;;
16727;SDS011;8482;54.396;18.590;2022-08-21T04:40:02;8.52;;;4.75;;
16727;SDS011;8482;54.396;18.590;2022-08-21T04:42:30;5.72;;;4.05;;
16727;SDS011;8482;54.396;18.590;2022-08-21T04:44:56;6.75;;;4.57;;
16727;SDS011;8482;54.396;18.590;2022-08-21T04:47:22;6.35;;;4.43;;
16727;SDS011;8482;54.396;18.590;2022-08-21T04:49:49;6.18;;;4.43;;
16727;SDS011;8482;54.396;18.590;2022-08-21T04:52:16;6.38;;;4.53;;
16727;SDS011;8482;54.396;18.590;2022-08-21T04:54:48;6.43;;;4.78;;
16727;SDS011;8482;54.396;18.590;2022-08-21T04:57:16;6.45;;;4.70;;
16727;SDS011;8482;54.396;18.590;2022-08-21T04:59:48;6.50;;;4.38;;
16727;SDS011;8482;54.396;18.590;2022-08-21T05:02:16;6.72;;;4.70;;
16727;SDS011;8482;54.396;18.590;2022-08-21T05:04:45;6.28;;;4.57;;
16727;SDS011;8482;54.396;18.590;2022-08-21T05:07:19;6.38;;;4.57;;
16727;SDS011;8482;54.396;18.590;2022-08-21T05:09:50;7.07;;;4.30;;
16727;SDS011;8482;54.396;18.590;2022-08-21T05:12:17;6.32;;;4.70;;
16727;SDS011;8482;54.396;18.590;2022-08-21T05:14:43;5.82;;;4.25;;
16727;SDS011;8482;54.396;18.590;2022-08-21T05:17:09;6.22;;;4.35;;
16727;SDS011;8482;54.396;18.590;2022-08-21T05:19:35;6.40;;;4.57;;
16727;SDS011;8482;54.396;18.590;2022-08-21T05:22:01;6.90;;;4.50;;
16727;SDS011;8482;54.396;18.590;2022-08-21T05:24:27;6.38;;;4.25;;
16727;SDS011;8482;54.396;18.590;2022-08-21T05:26:53;6.60;;;4.53;;
16727;SDS011;8482;54.396;18.590;2022-08-21T05:29:19;5.90;;;4.28;;
16727;SDS011;8482;54.396;18.590;2022-08-21T05:31:46;6.35;;;4.65;;
16727;SDS011;8482;54.396;18.590;2022-08-21T05:34:13;6.50;;;4.55;;
16727;SDS011;8482;54.396;18.590;2022-08-21T05:36:45;6.40;;;4.60;;
16727;SDS011;8482;54.396;18.590;2022-08-21T05:39:11;6.22;;;4.53;;
16727;SDS011;8482;54.396;18.590;2022-08-21T05:41:37;6.25;;;4.55;;
16727;SDS011;8482;54.396;18.590;2022-08-21T05:44:03;7.97;;;5.18;;
16727;SDS011;8482;54.396;18.590;2022-08-21T05:46:29;6.57;;;4.60;;
16727;SDS011;8482;54.396;18.590;2022-08-21T05:48:55;6.55;;;4.50;;
16727;SDS011;8482;54.396;18.590;2022-08-21T05:51:21;5.97;;;4.20;;
16727;SDS011;8482;54.396;18.590;2022-08-21T05:53:47;5.82;;;4.28;;
16727;SDS011;8482;54.396;18.590;2022-08-21T05:56:12;7.43;;;4.97;;
16727;SDS011;8482;54.396;18.590;2022-08-21T05:58:39;6.57;;;4.43;;
16727;SDS011;8482;54.396;18.590;2022-08-21T06:01:06;6.65;;;4.72;;
16727;SDS011;8482;54.396;18.590;2022-08-21T06:03:35;6.30;;;4.55;;
16727;SDS011;8482;54.396;18.590;2022-08-21T06:06:04;6.70;;;4.72;;
16727;SDS011;8482;54.396;18.590;2022-08-21T06:08:30;6.38;;;4.78;;
16727;SDS011;8482;54.396;18.590;2022-08-21T06:10:56;6.63;;;4.80;;
16727;SDS011;8482;54.396;18.590;2022-08-21T06:13:25;6.50;;;4.63;;
16727;SDS011;8482;54.396;18.590;2022-08-21T06:18:40;6.22;;;4.50;;
16727;SDS011;8482;54.396;18.590;2022-08-21T06:21:07;6.65;;;4.40;;
16727;SDS011;8482;54.396;18.590;2022-08-21T06:23:34;5.78;;;3.92;;
16727;SDS011;8482;54.396;18.590;2022-08-21T06:26:01;6.57;;;4.90;;
16727;SDS011;8482;54.396;18.590;2022-08-21T06:28:29;7.60;;;4.68;;
16727;SDS011;8482;54.396;18.590;2022-08-21T06:30:56;5.85;;;3.97;;
16727;SDS011;8482;54.396;18.590;2022-08-21T06:33:22;6.50;;;4.57;;
16727;SDS011;8482;54.396;18.590;2022-08-21T06:35:48;6.43;;;4.35;;
16727;SDS011;8482;54.396;18.590;2022-08-21T06:38:15;5.45;;;3.92;;
16727;SDS011;8482;54.396;18.590;2022-08-21T06:40:41;6.00;;;4.30;;
16727;SDS011;8482;54.396;18.590;2022-08-21T06:43:08;6.10;;;3.97;;
16727;SDS011;8482;54.396;18.590;2022-08-21T06:45:37;5.35;;;3.92;;
16727;SDS011;8482;54.396;18.590;2022-08-21T06:48:04;6.07;;;4.30;;
16727;SDS011;8482;54.396;18.590;2022-08-21T06:50:32;6.07;;;4.35;;
16727;SDS011;8482;54.396;18.590;2022-08-21T06:53:09;6.22;;;4.07;;
16727;SDS011;8482;54.396;18.590;2022-08-21T06:55:38;5.60;;;3.67;;
16727;SDS011;8482;54.396;18.590;2022-08-21T06:58:05;6.55;;;4.13;;
16727;SDS011;8482;54.396;18.590;2022-08-21T07:00:32;5.25;;;3.60;;
16727;SDS011;8482;54.396;18.590;2022-08-21T07:02:59;5.78;;;3.58;;
16727;SDS011;8482;54.396;18.590;2022-08-21T07:05:26;5.28;;;3.60;;
16727;SDS011;8482;54.396;18.590;2022-08-21T07:07:54;4.32;;;3.10;;
16727;SDS011;8482;54.396;18.590;2022-08-21T07:10:22;4.35;;;3.13;;
16727;SDS011;8482;54.396;18.590;2022-08-21T07:12:50;3.70;;;2.75;;
16727;SDS011;8482;54.396;18.590;2022-08-21T07:15:18;5.05;;;3.40;;
16727;SDS011;8482;54.396;18.590;2022-08-21T07:17:44;4.50;;;3.10;;
